sensor_id;sensor_type;location;lat;lon;timestamp;temperature;humidity
18408;DHT22;9330;52.210;21.174;2023-03-08T00:01:57;1.40;99.90
18408;DHT22;9330;52.210;21.174;2023-03-08T00:04:23;1.30;99.90
18408;DHT22;9330;52.210;21.174;2023-03-08T00:06:50;1.40;99.90
18408;DHT22;9330;52.210;21.174;2023-03-08T00:09:17;1.30;99.90
18408;DHT22;9330;52.210;21.174;2023-03-08T00:11:44;1.40;99.90
18408;DHT22;9330;52.210;21.174;2023-03-08T00:14:12;1.30;99.90
18408;DHT22;9330;52.210;21.174;2023-03-08T00:16:39;1.40;99.90
18408;DHT22;9330;52.210;21.174;2023-03-08T00:19:06;1.30;99.90
18408;DHT22;9330;52.210;21.174;2023-03-08T00:21:33;1.20;99.90
18408;DHT22;9330;52.210;21.174;2023-03-08T00:23:59;1.30;99.90
18408;DHT22;9330;52.210;21.174;2023-03-08T00:26:26;1.20;99.90
18408;DHT22;9330;52.210;21.174;2023-03-08T00:28:53;1.40;99.90
18408;DHT22;9330;52.210;21.174;2023-03-08T00:31:21;1.20;99.90
18408;DHT22;9330;52.210;21.174;2023-03-08T00:33:51;1.20;99.90
18408;DHT22;9330;52.210;21.174;2023-03-08T00:36:18;1.20;99.90
18408;DHT22;9330;52.210;21.174;2023-03-08T00:38:46;1.10;99.90
18408;DHT22;9330;52.210;21.174;2023-03-08T00:41:15;1.30;99.90
18408;DHT22;9330;52.210;21.174;2023-03-08T00:43:42;1.00;99.90
18408;DHT22;9330;52.210;21.174;2023-03-08T00:46:10;1.00;99.90
18408;DHT22;9330;52.210;21.174;2023-03-08T00:48:38;1.20;99.90
18408;DHT22;9330;52.210;21.174;2023-03-08T00:51:05;1.10;99.90
18408;DHT22;9330;52.210;21.174;2023-03-08T00:53:32;1.00;99.90
18408;DHT22;9330;52.210;21.174;2023-03-08T00:55:59;1.00;99.90
18408;DHT22;9330;52.210;21.174;2023-03-08T00:58:28;1.00;99.90
18408;DHT22;9330;52.210;21.174;2023-03-08T01:00:55;1.00;99.90
18408;DHT22;9330;52.210;21.174;2023-03-08T01:03:23;1.10;99.90
18408;DHT22;9330;52.210;21.174;2023-03-08T01:05:53;1.10;99.90
18408;DHT22;9330;52.210;21.174;2023-03-08T01:08:21;1.20;99.90
18408;DHT22;9330;52.210;21.174;2023-03-08T01:10:49;1.20;99.90
18408;DHT22;9330;52.210;21.174;2023-03-08T01:13:17;1.00;99.90
18408;DHT22;9330;52.210;21.174;2023-03-08T01:15:44;1.00;99.90
18408;DHT22;9330;52.210;21.174;2023-03-08T01:18:12;0.90;99.90
18408;DHT22;9330;52.210;21.174;2023-03-08T01:20:39;0.90;99.90
18408;DHT22;9330;52.210;21.174;2023-03-08T01:23:07;0.90;99.90
18408;DHT22;9330;52.210;21.174;2023-03-08T01:25:34;0.90;99.90
18408;DHT22;9330;52.210;21.174;2023-03-08T01:28:01;0.90;99.90
18408;DHT22;9330;52.210;21.174;2023-03-08T01:30:27;0.90;99.90
18408;DHT22;9330;52.210;21.174;2023-03-08T01:32:54;0.80;99.90
18408;DHT22;9330;52.210;21.174;2023-03-08T01:35:21;0.90;99.90
18408;DHT22;9330;52.210;21.174;2023-03-08T01:37:50;0.80;99.90
18408;DHT22;9330;52.210;21.174;2023-03-08T01:40:21;0.80;99.90
18408;DHT22;9330;52.210;21.174;2023-03-08T01:42:48;0.70;99.90
18408;DHT22;9330;52.210;21.174;2023-03-08T01:48:19;0.80;99.90
18408;DHT22;9330;52.210;21.174;2023-03-08T01:50:50;0.80;99.90
18408;DHT22;9330;52.210;21.174;2023-03-08T01:53:17;0.70;99.90
18408;DHT22;9330;52.210;21.174;2023-03-08T01:55:45;0.80;99.90
18408;DHT22;9330;52.210;21.174;2023-03-08T01:58:12;0.70;99.90
18408;DHT22;9330;52.210;21.174;2023-03-08T02:00:39;0.80;99.90
18408;DHT22;9330;52.210;21.174;2023-03-08T02:03:07;0.60;99.90
18408;DHT22;9330;52.210;21.174;2023-03-08T02:05:36;0.70;99.90
18408;DHT22;9330;52.210;21.174;2023-03-08T02:08:04;0.70;99.90
18408;DHT22;9330;52.210;21.174;2023-03-08T02:10:31;0.70;99.90
18408;DHT22;9330;52.210;21.174;2023-03-08T02:13:00;0.70;99.90
18408;DHT22;9330;52.210;21.174;2023-03-08T02:15:27;0.70;99.90
18408;DHT22;9330;52.210;21.174;2023-03-08T02:17:54;0.60;99.90
18408;DHT22;9330;52.210;21.174;2023-03-08T02:20:25;0.60;99.90
18408;DHT22;9330;52.210;21.174;2023-03-08T02:23:05;0.70;99.90
18408;DHT22;9330;52.210;21.174;2023-03-08T02:25:32;0.60;99.90
18408;DHT22;9330;52.210;21.174;2023-03-08T02:27:59;0.60;99.90
18408;DHT22;9330;52.210;21.174;2023-03-08T02:30:30;0.60;99.90
18408;DHT22;9330;52.210;21.174;2023-03-08T02:32:58;0.60;99.90
18408;DHT22;9330;52.210;21.174;2023-03-08T02:35:25;0.60;99.90
18408;DHT22;9330;52.210;21.174;2023-03-08T02:37:52;0.60;99.90
18408;DHT22;9330;52.210;21.174;2023-03-08T02:40:20;0.60;99.90
18408;DHT22;9330;52.210;21.174;2023-03-08T02:42:47;0.60;99.90
18408;DHT22;9330;52.210;21.174;2023-03-08T02:45:14;0.60;99.90
18408;DHT22;9330;52.210;21.174;2023-03-08T02:47:40;0.60;99.90
18408;DHT22;9330;52.210;21.174;2023-03-08T02:50:09;0.60;99.90
18408;DHT22;9330;52.210;21.174;2023-03-08T02:52:36;0.60;99.90
18408;DHT22;9330;52.210;21.174;2023-03-08T02:55:03;0.50;99.90
18408;DHT22;9330;52.210;21.174;2023-03-08T02:57:32;0.60;99.90
18408;DHT22;9330;52.210;21.174;2023-03-08T02:59:58;0.60;99.90
18408;DHT22;9330;52.210;21.174;2023-03-08T03:02:25;0.50;99.90
18408;DHT22;9330;52.210;21.174;2023-03-08T03:04:52;0.80;99.90
18408;DHT22;9330;52.210;21.174;2023-03-08T03:07:19;0.60;99.90
18408;DHT22;9330;52.210;21.174;2023-03-08T03:09:46;0.60;99.90
18408;DHT22;9330;52.210;21.174;2023-03-08T03:12:13;0.60;99.90
18408;DHT22;9330;52.210;21.174;2023-03-08T03:14:41;0.70;99.90
18408;DHT22;9330;52.210;21.174;2023-03-08T03:17:08;0.60;99.90
18408;DHT22;9330;52.210;21.174;2023-03-08T03:19:36;0.90;99.90
18408;DHT22;9330;52.210;21.174;2023-03-08T03:22:03;0.70;99.90
18408;DHT22;9330;52.210;21.174;2023-03-08T03:24:30;0.70;99.90
18408;DHT22;9330;52.210;21.174;2023-03-08T03:26:57;0.60;99.90
18408;DHT22;9330;52.210;21.174;2023-03-08T03:29:24;0.60;99.90
18408;DHT22;9330;52.210;21.174;2023-03-08T03:31:52;0.60;99.90
18408;DHT22;9330;52.210;21.174;2023-03-08T03:34:19;0.60;99.90
18408;DHT22;9330;52.210;21.174;2023-03-08T03:36:45;0.60;99.90
18408;DHT22;9330;52.210;21.174;2023-03-08T03:39:12;0.60;99.90
18408;DHT22;9330;52.210;21.174;2023-03-08T03:41:39;0.60;99.90
18408;DHT22;9330;52.210;21.174;2023-03-08T03:44:06;0.60;99.90
18408;DHT22;9330;52.210;21.174;2023-03-08T03:46:33;0.70;99.90
18408;DHT22;9330;52.210;21.174;2023-03-08T03:49:01;0.70;99.90
18408;DHT22;9330;52.210;21.174;2023-03-08T03:51:28;0.70;99.90
18408;DHT22;9330;52.210;21.174;2023-03-08T03:53:56;0.70;99.90
18408;DHT22;9330;52.210;21.174;2023-03-08T03:56:25;0.70;99.90
18408;DHT22;9330;52.210;21.174;2023-03-08T03:58:52;0.70;99.90
18408;DHT22;9330;52.210;21.174;2023-03-08T04:01:20;0.70;99.90
18408;DHT22;9330;52.210;21.174;2023-03-08T04:03:49;0.70;99.90
18408;DHT22;9330;52.210;21.174;2023-03-08T04:06:18;0.80;99.90
18408;DHT22;9330;52.210;21.174;2023-03-08T04:08:46;0.90;99.90
18408;DHT22;9330;52.210;21.174;2023-03-08T04:11:14;0.80;99.90
18408;DHT22;9330;52.210;21.174;2023-03-08T04:13:42;0.70;99.90
18408;DHT22;9330;52.210;21.174;2023-03-08T04:16:10;0.90;99.90
18408;DHT22;9330;52.210;21.174;2023-03-08T04:18:37;0.90;99.90
18408;DHT22;9330;52.210;21.174;2023-03-08T04:21:04;0.80;99.90
18408;DHT22;9330;52.210;21.174;2023-03-08T04:23:33;0.90;99.90
18408;DHT22;9330;52.210;21.174;2023-03-08T04:26:00;0.80;99.90
18408;DHT22;9330;52.210;21.174;2023-03-08T04:28:28;0.80;99.90
18408;DHT22;9330;52.210;21.174;2023-03-08T04:30:55;0.80;99.90
18408;DHT22;9330;52.210;21.174;2023-03-08T04:33:22;0.80;99.90
18408;DHT22;9330;52.210;21.174;2023-03-08T04:35:49;0.80;99.90
18408;DHT22;9330;52.210;21.174;2023-03-08T04:38:16;0.80;99.90
18408;DHT22;9330;52.210;21.174;2023-03-08T04:40:48;1.00;99.90
18408;DHT22;9330;52.210;21.174;2023-03-08T04:43:30;0.90;99.90
18408;DHT22;9330;52.210;21.174;2023-03-08T04:45:57;0.90;99.90
18408;DHT22;9330;52.210;21.174;2023-03-08T04:48:24;1.00;99.90
18408;DHT22;9330;52.210;21.174;2023-03-08T04:50:52;0.90;99.90
18408;DHT22;9330;52.210;21.174;2023-03-08T04:53:19;0.80;99.90
18408;DHT22;9330;52.210;21.174;2023-03-08T04:55:48;0.80;99.90
18408;DHT22;9330;52.210;21.174;2023-03-08T04:58:15;0.90;99.90
18408;DHT22;9330;52.210;21.174;2023-03-08T05:00:42;0.80;99.90
18408;DHT22;9330;52.210;21.174;2023-03-08T05:03:09;0.90;99.90
18408;DHT22;9330;52.210;21.174;2023-03-08T05:05:36;0.80;99.90
18408;DHT22;9330;52.210;21.174;2023-03-08T05:08:03;0.80;99.90
18408;DHT22;9330;52.210;21.174;2023-03-08T05:10:30;0.80;99.90
18408;DHT22;9330;52.210;21.174;2023-03-08T05:12:59;0.90;99.90
18408;DHT22;9330;52.210;21.174;2023-03-08T05:15:25;0.90;99.90
18408;DHT22;9330;52.210;21.174;2023-03-08T05:17:52;0.90;99.90
18408;DHT22;9330;52.210;21.174;2023-03-08T05:20:19;1.00;99.90
18408;DHT22;9330;52.210;21.174;2023-03-08T05:22:46;1.00;99.90
18408;DHT22;9330;52.210;21.174;2023-03-08T05:25:13;0.90;99.90
18408;DHT22;9330;52.210;21.174;2023-03-08T05:27:40;0.90;99.90
18408;DHT22;9330;52.210;21.174;2023-03-08T05:30:09;0.80;99.90
18408;DHT22;9330;52.210;21.174;2023-03-08T05:32:36;0.90;99.90
18408;DHT22;9330;52.210;21.174;2023-03-08T05:35:04;0.90;99.90
18408;DHT22;9330;52.210;21.174;2023-03-08T05:37:31;1.00;99.90
18408;DHT22;9330;52.210;21.174;2023-03-08T05:39:58;1.00;99.90
18408;DHT22;9330;52.210;21.174;2023-03-08T05:42:24;1.00;99.90
18408;DHT22;9330;52.210;21.174;2023-03-08T05:44:52;1.00;99.90
18408;DHT22;9330;52.210;21.174;2023-03-08T05:47:20;1.00;99.90
18408;DHT22;9330;52.210;21.174;2023-03-08T05:49:47;1.10;99.90
18408;DHT22;9330;52.210;21.174;2023-03-08T05:52:14;1.20;99.90
18408;DHT22;9330;52.210;21.174;2023-03-08T05:54:41;1.20;99.90
18408;DHT22;9330;52.210;21.174;2023-03-08T05:57:08;1.00;99.90
18408;DHT22;9330;52.210;21.174;2023-03-08T05:59:34;1.30;99.90
18408;DHT22;9330;52.210;21.174;2023-03-08T06:02:01;1.00;99.90
18408;DHT22;9330;52.210;21.174;2023-03-08T06:04:29;1.00;99.90
18408;DHT22;9330;52.210;21.174;2023-03-08T06:06:57;1.00;99.90
18408;DHT22;9330;52.210;21.174;2023-03-08T06:09:23;1.10;99.90
18408;DHT22;9330;52.210;21.174;2023-03-08T06:11:50;1.00;99.90
18408;DHT22;9330;52.210;21.174;2023-03-08T06:14:17;1.10;99.90
18408;DHT22;9330;52.210;21.174;2023-03-08T06:16:44;1.00;99.90
18408;DHT22;9330;52.210;21.174;2023-03-08T06:19:13;1.00;99.90
18408;DHT22;9330;52.210;21.174;2023-03-08T06:21:41;1.10;99.90
18408;DHT22;9330;52.210;21.174;2023-03-08T06:24:08;1.00;99.90
18408;DHT22;9330;52.210;21.174;2023-03-08T06:26:35;0.90;99.90
18408;DHT22;9330;52.210;21.174;2023-03-08T06:29:02;1.00;99.90
18408;DHT22;9330;52.210;21.174;2023-03-08T06:31:29;0.90;99.90
18408;DHT22;9330;52.210;21.174;2023-03-08T06:33:56;0.90;99.90
18408;DHT22;9330;52.210;21.174;2023-03-08T06:36:22;1.00;99.90
18408;DHT22;9330;52.210;21.174;2023-03-08T06:38:51;1.00;99.90
18408;DHT22;9330;52.210;21.174;2023-03-08T06:41:19;0.90;99.90
18408;DHT22;9330;52.210;21.174;2023-03-08T06:43:46;1.00;99.90
18408;DHT22;9330;52.210;21.174;2023-03-08T06:46:15;1.10;99.90
18408;DHT22;9330;52.210;21.174;2023-03-08T06:48:43;1.00;99.90
18408;DHT22;9330;52.210;21.174;2023-03-08T06:51:10;1.10;99.90
18408;DHT22;9330;52.210;21.174;2023-03-08T06:53:37;1.30;99.90
18408;DHT22;9330;52.210;21.174;2023-03-08T06:56:07;1.40;99.90
18408;DHT22;9330;52.210;21.174;2023-03-08T06:58:35;1.50;99.90
18408;DHT22;9330;52.210;21.174;2023-03-08T07:01:02;1.60;99.90
18408;DHT22;9330;52.210;21.174;2023-03-08T07:03:30;1.60;99.90
18408;DHT22;9330;52.210;21.174;2023-03-08T07:05:58;1.70;99.90
18408;DHT22;9330;52.210;21.174;2023-03-08T07:08:25;1.70;99.90
18408;DHT22;9330;52.210;21.174;2023-03-08T07:10:52;1.70;99.90
18408;DHT22;9330;52.210;21.174;2023-03-08T07:13:21;2.10;99.90
18408;DHT22;9330;52.210;21.174;2023-03-08T07:15:48;2.20;99.90
18408;DHT22;9330;52.210;21.174;2023-03-08T07:18:15;2.00;99.90
18408;DHT22;9330;52.210;21.174;2023-03-08T07:20:41;2.10;99.90
18408;DHT22;9330;52.210;21.174;2023-03-08T07:23:08;2.20;99.90
18408;DHT22;9330;52.210;21.174;2023-03-08T07:25:37;2.10;99.90
18408;DHT22;9330;52.210;21.174;2023-03-08T07:28:04;2.40;99.90
18408;DHT22;9330;52.210;21.174;2023-03-08T07:30:33;2.50;99.90
18408;DHT22;9330;52.210;21.174;2023-03-08T07:32:59;2.50;99.90
18408;DHT22;9330;52.210;21.174;2023-03-08T07:35:26;2.50;99.90
18408;DHT22;9330;52.210;21.174;2023-03-08T07:37:54;2.40;99.90
18408;DHT22;9330;52.210;21.174;2023-03-08T07:40:21;2.40;99.90
18408;DHT22;9330;52.210;21.174;2023-03-08T07:42:48;2.60;99.90
18408;DHT22;9330;52.210;21.174;2023-03-08T07:45:15;2.50;99.90
18408;DHT22;9330;52.210;21.174;2023-03-08T07:47:44;2.50;99.90
18408;DHT22;9330;52.210;21.174;2023-03-08T07:50:11;2.50;99.90
18408;DHT22;9330;52.210;21.174;2023-03-08T07:52:38;2.60;99.90
18408;DHT22;9330;52.210;21.174;2023-03-08T07:55:06;2.60;99.90
18408;DHT22;9330;52.210;21.174;2023-03-08T07:57:33;2.70;99.90
18408;DHT22;9330;52.210;21.174;2023-03-08T08:00:00;2.60;99.90
18408;DHT22;9330;52.210;21.174;2023-03-08T08:02:31;2.70;99.90
18408;DHT22;9330;52.210;21.174;2023-03-08T08:05:00;2.70;99.90
18408;DHT22;9330;52.210;21.174;2023-03-08T08:07:27;2.90;99.90
18408;DHT22;9330;52.210;21.174;2023-03-08T08:09:53;2.70;99.90
18408;DHT22;9330;52.210;21.174;2023-03-08T08:12:20;2.70;99.90
18408;DHT22;9330;52.210;21.174;2023-03-08T08:14:49;2.60;99.90
18408;DHT22;9330;52.210;21.174;2023-03-08T08:17:17;2.50;99.90
18408;DHT22;9330;52.210;21.174;2023-03-08T08:19:44;2.50;99.90
18408;DHT22;9330;52.210;21.174;2023-03-08T08:22:12;2.50;99.90
18408;DHT22;9330;52.210;21.174;2023-03-08T08:24:40;2.70;99.90
18408;DHT22;9330;52.210;21.174;2023-03-08T08:27:06;3.10;99.90
18408;DHT22;9330;52.210;21.174;2023-03-08T08:29:33;3.20;99.90
18408;DHT22;9330;52.210;21.174;2023-03-08T08:32:01;3.30;99.90
18408;DHT22;9330;52.210;21.174;2023-03-08T08:34:28;3.20;99.90
18408;DHT22;9330;52.210;21.174;2023-03-08T08:36:55;3.20;99.90
18408;DHT22;9330;52.210;21.174;2023-03-08T08:39:24;3.00;99.90
18408;DHT22;9330;52.210;21.174;2023-03-08T08:41:50;2.80;99.90
18408;DHT22;9330;52.210;21.174;2023-03-08T08:44:17;2.70;99.90
18408;DHT22;9330;52.210;21.174;2023-03-08T08:46:44;2.80;99.90
18408;DHT22;9330;52.210;21.174;2023-03-08T08:49:11;2.70;99.90
18408;DHT22;9330;52.210;21.174;2023-03-08T08:51:38;2.60;99.90
18408;DHT22;9330;52.210;21.174;2023-03-08T08:54:05;2.50;99.90
18408;DHT22;9330;52.210;21.174;2023-03-08T08:56:33;2.40;99.90
18408;DHT22;9330;52.210;21.174;2023-03-08T08:59:09;2.60;99.90
18408;DHT22;9330;52.210;21.174;2023-03-08T09:01:37;2.70;99.90
18408;DHT22;9330;52.210;21.174;2023-03-08T09:04:08;2.70;99.90
18408;DHT22;9330;52.210;21.174;2023-03-08T09:06:35;2.60;99.90
18408;DHT22;9330;52.210;21.174;2023-03-08T09:09:03;2.90;99.90
18408;DHT22;9330;52.210;21.174;2023-03-08T09:11:31;3.00;99.90
18408;DHT22;9330;52.210;21.174;2023-03-08T09:13:59;3.00;99.90
18408;DHT22;9330;52.210;21.174;2023-03-08T09:16:32;3.20;99.90
18408;DHT22;9330;52.210;21.174;2023-03-08T09:19:01;3.20;99.90
18408;DHT22;9330;52.210;21.174;2023-03-08T09:21:29;3.00;99.90
18408;DHT22;9330;52.210;21.174;2023-03-08T09:23:59;2.90;99.90
18408;DHT22;9330;52.210;21.174;2023-03-08T09:26:28;2.90;99.90
18408;DHT22;9330;52.210;21.174;2023-03-08T09:28:58;2.80;99.90
18408;DHT22;9330;52.210;21.174;2023-03-08T09:31:29;2.80;99.90
18408;DHT22;9330;52.210;21.174;2023-03-08T09:33:56;2.70;99.90
18408;DHT22;9330;52.210;21.174;2023-03-08T09:36:24;2.70;99.90
18408;DHT22;9330;52.210;21.174;2023-03-08T09:38:53;2.60;99.90
18408;DHT22;9330;52.210;21.174;2023-03-08T09:41:39;2.60;99.90
18408;DHT22;9330;52.210;21.174;2023-03-08T09:44:27;2.60;99.90
18408;DHT22;9330;52.210;21.174;2023-03-08T09:47:01;2.60;99.90
18408;DHT22;9330;52.210;21.174;2023-03-08T09:49:32;2.70;99.90
18408;DHT22;9330;52.210;21.174;2023-03-08T09:52:05;2.70;99.90
18408;DHT22;9330;52.210;21.174;2023-03-08T09:54:35;2.70;99.90
18408;DHT22;9330;52.210;21.174;2023-03-08T09:57:05;2.70;99.90
18408;DHT22;9330;52.210;21.174;2023-03-08T09:59:43;2.70;99.90
18408;DHT22;9330;52.210;21.174;2023-03-08T10:02:19;2.70;99.90
18408;DHT22;9330;52.210;21.174;2023-03-08T10:04:55;2.90;99.90
18408;DHT22;9330;52.210;21.174;2023-03-08T10:07:33;2.70;99.90
18408;DHT22;9330;52.210;21.174;2023-03-08T10:10:21;2.70;99.90
18408;DHT22;9330;52.210;21.174;2023-03-08T10:12:58;2.70;99.90
18408;DHT22;9330;52.210;21.174;2023-03-08T10:15:31;2.70;99.90
18408;DHT22;9330;52.210;21.174;2023-03-08T10:18:09;2.70;99.90
18408;DHT22;9330;52.210;21.174;2023-03-08T10:20:39;2.70;99.90
18408;DHT22;9330;52.210;21.174;2023-03-08T10:23:13;2.70;99.90
18408;DHT22;9330;52.210;21.174;2023-03-08T10:25:40;2.70;99.90
18408;DHT22;9330;52.210;21.174;2023-03-08T10:28:12;2.80;99.90
18408;DHT22;9330;52.210;21.174;2023-03-08T10:30:44;3.00;99.90
18408;DHT22;9330;52.210;21.174;2023-03-08T10:33:13;2.80;99.90
18408;DHT22;9330;52.210;21.174;2023-03-08T10:35:57;3.00;99.90
18408;DHT22;9330;52.210;21.174;2023-03-08T10:38:28;2.70;99.90
18408;DHT22;9330;52.210;21.174;2023-03-08T10:41:00;2.80;99.90
18408;DHT22;9330;52.210;21.174;2023-03-08T10:43:29;2.90;99.90
18408;DHT22;9330;52.210;21.174;2023-03-08T10:46:01;2.90;99.90
18408;DHT22;9330;52.210;21.174;2023-03-08T10:48:28;2.90;99.90
18408;DHT22;9330;52.210;21.174;2023-03-08T10:51:00;2.90;99.90
18408;DHT22;9330;52.210;21.174;2023-03-08T10:53:27;3.00;99.90
18408;DHT22;9330;52.210;21.174;2023-03-08T10:55:56;3.10;99.90
18408;DHT22;9330;52.210;21.174;2023-03-08T10:58:33;3.20;99.90
18408;DHT22;9330;52.210;21.174;2023-03-08T11:01:04;3.50;99.90
18408;DHT22;9330;52.210;21.174;2023-03-08T11:03:31;3.70;99.90
18408;DHT22;9330;52.210;21.174;2023-03-08T11:06:00;3.90;99.90
18408;DHT22;9330;52.210;21.174;2023-03-08T11:08:29;4.30;99.90
18408;DHT22;9330;52.210;21.174;2023-03-08T11:11:04;4.50;99.90
18408;DHT22;9330;52.210;21.174;2023-03-08T11:13:33;4.70;99.90
18408;DHT22;9330;52.210;21.174;2023-03-08T11:16:18;4.70;99.90
18408;DHT22;9330;52.210;21.174;2023-03-08T11:19:01;4.60;99.90
18408;DHT22;9330;52.210;21.174;2023-03-08T11:21:34;4.60;99.90
18408;DHT22;9330;52.210;21.174;2023-03-08T11:24:17;4.60;99.60
18408;DHT22;9330;52.210;21.174;2023-03-08T11:26:54;4.70;98.90
18408;DHT22;9330;52.210;21.174;2023-03-08T11:29:31;4.60;95.80
18408;DHT22;9330;52.210;21.174;2023-03-08T11:32:12;4.80;95.80
18408;DHT22;9330;52.210;21.174;2023-03-08T11:34:47;4.90;92.00
18408;DHT22;9330;52.210;21.174;2023-03-08T11:37:25;5.20;93.10
18408;DHT22;9330;52.210;21.174;2023-03-08T11:40:00;4.90;91.40
18408;DHT22;9330;52.210;21.174;2023-03-08T11:42:39;4.90;92.80
18408;DHT22;9330;52.210;21.174;2023-03-08T11:45:17;4.70;90.60
18408;DHT22;9330;52.210;21.174;2023-03-08T11:51:03;4.50;94.60
18408;DHT22;9330;52.210;21.174;2023-03-08T11:53:45;4.30;96.90
18408;DHT22;9330;52.210;21.174;2023-03-08T11:56:35;4.20;99.50
18408;DHT22;9330;52.210;21.174;2023-03-08T11:59:04;4.30;99.90
18408;DHT22;9330;52.210;21.174;2023-03-08T12:01:37;4.80;99.90
18408;DHT22;9330;52.210;21.174;2023-03-08T12:04:10;4.80;97.00
18408;DHT22;9330;52.210;21.174;2023-03-08T12:06:41;4.80;96.50
18408;DHT22;9330;52.210;21.174;2023-03-08T12:09:17;5.00;95.60
18408;DHT22;9330;52.210;21.174;2023-03-08T12:11:50;5.20;93.50
18408;DHT22;9330;52.210;21.174;2023-03-08T12:14:20;5.20;92.70
18408;DHT22;9330;52.210;21.174;2023-03-08T12:16:50;5.20;90.30
18408;DHT22;9330;52.210;21.174;2023-03-08T12:19:25;5.20;91.00
18408;DHT22;9330;52.210;21.174;2023-03-08T12:22:03;5.30;90.60
18408;DHT22;9330;52.210;21.174;2023-03-08T12:24:43;5.60;88.50
18408;DHT22;9330;52.210;21.174;2023-03-08T12:27:18;5.60;91.20
18408;DHT22;9330;52.210;21.174;2023-03-08T12:29:51;6.20;84.30
18408;DHT22;9330;52.210;21.174;2023-03-08T12:32:20;6.70;83.70
18408;DHT22;9330;52.210;21.174;2023-03-08T12:35:00;7.40;73.40
18408;DHT22;9330;52.210;21.174;2023-03-08T12:37:29;7.70;72.10
18408;DHT22;9330;52.210;21.174;2023-03-08T12:40:01;7.60;72.20
18408;DHT22;9330;52.210;21.174;2023-03-08T12:42:33;7.40;69.90
18408;DHT22;9330;52.210;21.174;2023-03-08T12:45:12;6.50;71.10
18408;DHT22;9330;52.210;21.174;2023-03-08T12:47:56;6.20;74.20
18408;DHT22;9330;52.210;21.174;2023-03-08T12:50:24;5.90;75.10
18408;DHT22;9330;52.210;21.174;2023-03-08T12:52:52;6.20;73.00
18408;DHT22;9330;52.210;21.174;2023-03-08T12:55:24;6.60;65.80
18408;DHT22;9330;52.210;21.174;2023-03-08T12:57:57;6.70;66.00
18408;DHT22;9330;52.210;21.174;2023-03-08T13:00:31;6.50;62.30
18408;DHT22;9330;52.210;21.174;2023-03-08T13:03:04;6.10;59.50
18408;DHT22;9330;52.210;21.174;2023-03-08T13:05:34;6.00;67.30
18408;DHT22;9330;52.210;21.174;2023-03-08T13:08:16;5.70;65.40
18408;DHT22;9330;52.210;21.174;2023-03-08T13:11:02;5.30;64.50
18408;DHT22;9330;52.210;21.174;2023-03-08T13:13:44;5.10;69.30
18408;DHT22;9330;52.210;21.174;2023-03-08T13:16:30;5.00;69.70
18408;DHT22;9330;52.210;21.174;2023-03-08T13:19:10;5.00;74.20
18408;DHT22;9330;52.210;21.174;2023-03-08T13:21:46;4.90;78.30
18408;DHT22;9330;52.210;21.174;2023-03-08T13:24:17;5.00;80.20
18408;DHT22;9330;52.210;21.174;2023-03-08T13:26:58;4.80;83.60
18408;DHT22;9330;52.210;21.174;2023-03-08T13:29:29;4.70;87.60
18408;DHT22;9330;52.210;21.174;2023-03-08T13:32:04;4.80;88.30
18408;DHT22;9330;52.210;21.174;2023-03-08T13:34:33;4.70;83.30
18408;DHT22;9330;52.210;21.174;2023-03-08T13:37:00;4.80;89.40
18408;DHT22;9330;52.210;21.174;2023-03-08T13:39:30;4.80;87.40
18408;DHT22;9330;52.210;21.174;2023-03-08T13:42:08;4.80;91.30
18408;DHT22;9330;52.210;21.174;2023-03-08T13:44:35;4.90;90.10
18408;DHT22;9330;52.210;21.174;2023-03-08T13:47:11;4.80;88.80
18408;DHT22;9330;52.210;21.174;2023-03-08T13:49:42;4.90;90.70
18408;DHT22;9330;52.210;21.174;2023-03-08T13:52:16;4.80;90.90
18408;DHT22;9330;52.210;21.174;2023-03-08T13:54:47;4.70;90.90
18408;DHT22;9330;52.210;21.174;2023-03-08T13:57:19;4.70;90.70
18408;DHT22;9330;52.210;21.174;2023-03-08T13:59:47;4.80;91.60
18408;DHT22;9330;52.210;21.174;2023-03-08T14:02:20;4.60;92.70
18408;DHT22;9330;52.210;21.174;2023-03-08T14:04:47;4.70;92.90
18408;DHT22;9330;52.210;21.174;2023-03-08T14:07:20;4.80;93.10
18408;DHT22;9330;52.210;21.174;2023-03-08T14:09:49;4.70;93.00
18408;DHT22;9330;52.210;21.174;2023-03-08T14:12:18;4.70;91.70
18408;DHT22;9330;52.210;21.174;2023-03-08T14:14:48;4.70;92.40
18408;DHT22;9330;52.210;21.174;2023-03-08T14:17:19;4.80;93.70
18408;DHT22;9330;52.210;21.174;2023-03-08T14:19:52;4.90;95.10
18408;DHT22;9330;52.210;21.174;2023-03-08T14:22:21;5.00;91.60
18408;DHT22;9330;52.210;21.174;2023-03-08T14:24:53;5.30;92.90
18408;DHT22;9330;52.210;21.174;2023-03-08T14:27:32;5.10;91.20
18408;DHT22;9330;52.210;21.174;2023-03-08T14:30:03;5.10;89.00
18408;DHT22;9330;52.210;21.174;2023-03-08T14:32:35;5.10;87.50
18408;DHT22;9330;52.210;21.174;2023-03-08T14:35:05;5.10;88.40
18408;DHT22;9330;52.210;21.174;2023-03-08T14:37:34;4.90;88.90
18408;DHT22;9330;52.210;21.174;2023-03-08T14:40:22;4.80;89.30
18408;DHT22;9330;52.210;21.174;2023-03-08T14:42:51;4.80;90.20
18408;DHT22;9330;52.210;21.174;2023-03-08T14:45:21;4.80;90.90
18408;DHT22;9330;52.210;21.174;2023-03-08T14:47:49;4.80;92.80
18408;DHT22;9330;52.210;21.174;2023-03-08T14:50:22;4.60;91.00
18408;DHT22;9330;52.210;21.174;2023-03-08T14:52:51;4.60;91.10
18408;DHT22;9330;52.210;21.174;2023-03-08T14:55:22;4.60;91.60
18408;DHT22;9330;52.210;21.174;2023-03-08T14:57:51;4.60;91.90
18408;DHT22;9330;52.210;21.174;2023-03-08T15:00:20;4.70;91.50
18408;DHT22;9330;52.210;21.174;2023-03-08T15:02:47;4.50;91.20
18408;DHT22;9330;52.210;21.174;2023-03-08T15:05:15;4.50;91.40
18408;DHT22;9330;52.210;21.174;2023-03-08T15:07:43;4.40;91.40
18408;DHT22;9330;52.210;21.174;2023-03-08T15:10:25;4.50;91.90
18408;DHT22;9330;52.210;21.174;2023-03-08T15:12:54;4.40;92.60
18408;DHT22;9330;52.210;21.174;2023-03-08T15:15:21;4.40;92.90
18408;DHT22;9330;52.210;21.174;2023-03-08T15:17:48;4.40;94.80
18408;DHT22;9330;52.210;21.174;2023-03-08T15:20:15;4.50;95.20
18408;DHT22;9330;52.210;21.174;2023-03-08T15:22:46;4.30;93.50
18408;DHT22;9330;52.210;21.174;2023-03-08T15:25:15;4.30;94.20
18408;DHT22;9330;52.210;21.174;2023-03-08T15:27:44;4.20;94.10
18408;DHT22;9330;52.210;21.174;2023-03-08T15:30:16;4.20;94.30
18408;DHT22;9330;52.210;21.174;2023-03-08T15:32:43;4.20;95.60
18408;DHT22;9330;52.210;21.174;2023-03-08T15:35:11;4.10;95.20
18408;DHT22;9330;52.210;21.174;2023-03-08T15:37:38;4.20;96.80
18408;DHT22;9330;52.210;21.174;2023-03-08T15:40:08;4.10;96.60
18408;DHT22;9330;52.210;21.174;2023-03-08T15:42:36;4.10;99.80
18408;DHT22;9330;52.210;21.174;2023-03-08T15:45:05;4.00;99.90
18408;DHT22;9330;52.210;21.174;2023-03-08T15:47:32;4.00;99.90
18408;DHT22;9330;52.210;21.174;2023-03-08T15:49:59;3.90;99.90
18408;DHT22;9330;52.210;21.174;2023-03-08T15:52:26;3.90;99.90
18408;DHT22;9330;52.210;21.174;2023-03-08T15:54:53;3.80;99.90
18408;DHT22;9330;52.210;21.174;2023-03-08T15:57:20;3.80;99.90
18408;DHT22;9330;52.210;21.174;2023-03-08T15:59:47;3.80;99.90
18408;DHT22;9330;52.210;21.174;2023-03-08T16:02:18;3.70;99.90
18408;DHT22;9330;52.210;21.174;2023-03-08T16:04:45;3.70;99.90
18408;DHT22;9330;52.210;21.174;2023-03-08T16:07:14;3.70;99.90